Time;durP1;ratioP1;P1;durP2;ratioP2;P2;SDS_P1;SDS_P2;PMS_P1;PMS_P2;Temp;Humidity;BMP_temperature;BMP_pressure;BME280_temperature;BME280_humidity;BME280_pressure;Samples;Min_cycle;Max_cycle;Signal;HPM_P1;HPM_P2
2023/07/26 00:02:38;;;;;;;34.05;4.53;;;29.00;72.70;;;;;;5094542;28;20101;-70
2023/07/26 00:05:42;;;;;;;33.17;6.18;;;29.00;73.00;;;;;;5094577;28;20190;-69
2023/07/26 00:08:46;;;;;;;26.27;5.05;;;28.90;73.10;;;;;;5094535;28;20059;-69
2023/07/26 00:11:50;;;;;;;28.48;4.78;;;28.90;73.30;;;;;;5094593;28;20066;-69
2023/07/26 00:14:54;;;;;;;26.15;4.93;;;28.80;73.40;;;;;;5094323;28;20399;-69
2023/07/26 00:17:58;;;;;;;22.73;4.65;;;28.80;73.60;;;;;;5094533;28;20059;-69
2023/07/26 00:21:02;;;;;;;20.25;4.43;;;28.80;73.90;;;;;;5094425;28;20042;-69
2023/07/26 00:24:06;;;;;;;21.25;4.30;;;28.80;74.10;;;;;;5094527;28;20062;-69
2023/07/26 00:27:12;;;;;;;33.72;5.15;;;28.80;74.00;;;;;;5093888;28;20047;-70
2023/07/26 00:30:16;;;;;;;22.00;4.47;;;28.70;74.10;;;;;;5094046;28;20122;-69
2023/07/26 00:33:20;;;;;;;26.85;4.45;;;28.70;74.20;;;;;;5093724;28;20082;-68
2023/07/26 00:36:24;;;;;;;23.38;4.65;;;28.70;74.30;;;;;;5093259;28;20173;-69
2023/07/26 00:39:28;;;;;;;23.98;4.75;;;28.70;74.20;;;;;;5093183;28;20051;-69
2023/07/26 00:42:31;;;;;;;27.83;4.10;;;28.70;74.40;;;;;;5093737;28;20039;-69
2023/07/26 00:45:38;;;;;;;23.98;5.22;;;28.70;74.70;;;;;;5093688;28;20506;-69
2023/07/26 00:48:43;;;;;;;27.27;4.72;;;28.60;74.90;;;;;;5093631;28;20510;-69
2023/07/26 00:51:47;;;;;;;24.42;4.50;;;28.60;74.90;;;;;;5093481;28;20059;-69
2023/07/26 00:54:55;;;;;;;31.70;5.05;;;28.60;75.00;;;;;;5093063;28;20043;-69
2023/07/26 00:58:00;;;;;;;35.13;5.20;;;28.50;75.40;;;;;;5093364;28;20286;-68
2023/07/26 01:01:04;;;;;;;23.15;4.10;;;28.50;75.50;;;;;;5093519;28;20391;-69
2023/07/26 01:04:08;;;;;;;35.05;5.80;;;28.50;75.70;;;;;;5092987;28;20058;-69
2023/07/26 01:07:23;;;;;;;24.25;4.95;;;28.50;75.70;;;;;;5092656;28;20499;-69
2023/07/26 01:10:38;;;;;;;24.25;5.32;;;28.60;75.70;;;;;;5093570;28;20059;-69
2023/07/26 01:14:27;;;;;;;21.65;4.85;;;28.50;75.80;;;;;;5092391;28;20043;-69
2023/07/26 01:17:31;;;;;;;23.45;5.03;;;28.50;75.60;;;;;;5020344;28;20528;-69
2023/07/26 01:20:35;;;;;;;25.50;5.18;;;28.50;75.60;;;;;;5093111;28;20058;-69
2023/07/26 01:23:39;;;;;;;23.60;4.50;;;28.40;75.80;;;;;;5092946;28;20424;-69
2023/07/26 01:26:43;;;;;;;27.38;5.47;;;28.40;75.60;;;;;;5093247;28;20059;-69
2023/07/26 01:29:50;;;;;;;25.05;4.63;;;28.40;76.00;;;;;;5093353;28;20051;-69
2023/07/26 01:32:55;;;;;;;36.13;5.28;;;28.30;76.20;;;;;;5091803;28;20054;-69
2023/07/26 01:36:00;;;;;;;27.20;5.60;;;28.30;76.60;;;;;;5092179;28;20059;-69
2023/07/26 01:39:05;;;;;;;25.80;4.82;;;28.30;76.90;;;;;;5092536;28;20047;-69
2023/07/26 01:42:10;;;;;;;33.70;5.45;;;28.30;76.90;;;;;;5093348;28;20055;-69
2023/07/26 01:45:15;;;;;;;28.75;4.25;;;28.30;77.20;;;;;;5091796;28;20051;-69
2023/07/26 01:48:19;;;;;;;27.90;6.28;;;28.20;77.20;;;;;;5092452;28;20051;-69
2023/07/26 01:51:23;;;;;;;31.52;5.45;;;28.30;77.40;;;;;;5092659;28;20491;-69
2023/07/26 01:54:27;;;;;;;33.10;5.43;;;28.20;77.20;;;;;;5092491;28;20047;-69
2023/07/26 01:57:31;;;;;;;30.67;5.65;;;28.20;77.00;;;;;;5092282;28;20047;-69
2023/07/26 02:00:35;;;;;;;26.30;5.70;;;28.20;77.00;;;;;;5091265;28;20089;-69
2023/07/26 02:03:39;;;;;;;27.13;4.90;;;28.20;76.90;;;;;;5091958;28;20047;-69
2023/07/26 02:06:43;;;;;;;22.55;4.88;;;28.20;76.90;;;;;;5090941;28;20047;-69
2023/07/26 02:09:48;;;;;;;33.92;5.45;;;28.20;77.20;;;;;;5091481;28;20059;-69
2023/07/26 02:12:52;;;;;;;22.42;5.00;;;28.20;76.70;;;;;;5091913;28;20047;-69
2023/07/26 02:15:56;;;;;;;28.15;5.35;;;28.10;76.90;;;;;;5092145;28;20047;-69
2023/07/26 02:18:59;;;;;;;36.53;5.63;;;28.10;76.90;;;;;;5091034;28;20039;-69
2023/07/26 02:22:04;;;;;;;33.28;4.80;;;28.10;77.20;;;;;;5092019;28;20051;-69
2023/07/26 02:25:08;;;;;;;26.50;5.07;;;28.10;77.10;;;;;;5090678;28;20043;-69
2023/07/26 02:28:12;;;;;;;30.73;5.30;;;28.00;77.50;;;;;;5091742;28;20118;-69
2023/07/26 02:31:15;;;;;;;23.52;6.05;;;28.00;77.80;;;;;;5090835;28;20046;-69
2023/07/26 02:34:19;;;;;;;28.70;6.75;;;28.00;77.70;;;;;;5090889;28;20039;-69
2023/07/26 02:37:23;;;;;;;33.55;7.78;;;28.00;77.70;;;;;;5091513;28;20047;-69
2023/07/26 02:40:27;;;;;;;24.85;7.68;;;28.00;77.60;;;;;;5091452;28;20043;-69
2023/07/26 02:43:31;;;;;;;29.25;6.45;;;28.00;78.00;;;;;;5090634;28;20492;-69
2023/07/26 02:46:34;;;;;;;30.33;6.82;;;28.00;78.40;;;;;;5091524;28;20518;-69
2023/07/26 02:49:38;;;;;;;33.22;6.35;;;28.00;78.30;;;;;;5090462;28;20051;-69
2023/07/26 02:52:43;;;;;;;28.65;6.72;;;28.00;78.20;;;;;;5090506;28;20043;-69
2023/07/26 02:55:47;;;;;;;35.65;7.07;;;28.00;78.50;;;;;;5091582;28;20047;-69
2023/07/26 02:58:51;;;;;;;33.70;6.68;;;28.00;78.50;;;;;;5090675;28;20062;-69
2023/07/26 03:01:55;;;;;;;31.85;6.10;;;28.00;78.30;;;;;;5090483;28;20050;-69
2023/07/26 03:04:59;;;;;;;28.92;5.57;;;28.00;78.40;;;;;;5090292;28;20039;-69
2023/07/26 03:08:03;;;;;;;32.10;5.50;;;28.00;78.20;;;;;;5090874;28;20487;-69
2023/07/26 03:11:07;;;;;;;34.72;5.78;;;28.10;78.40;;;;;;5090110;28;20039;-67
2023/07/26 03:14:11;;;;;;;31.05;6.43;;;28.10;78.60;;;;;;5090835;28;20039;-68
2023/07/26 03:17:15;;;;;;;46.67;7.72;;;28.00;79.10;;;;;;5090974;28;20499;-69
2023/07/26 03:20:19;;;;;;;37.83;6.78;;;27.90;79.30;;;;;;5090964;28;20047;-69
2023/07/26 03:23:22;;;;;;;32.42;8.02;;;27.90;79.50;;;;;;5089943;28;20530;-68
2023/07/26 03:26:26;;;;;;;36.17;7.47;;;27.90;79.40;;;;;;5090144;28;20403;-68
2023/07/26 03:29:30;;;;;;;36.00;6.72;;;27.90;79.50;;;;;;5089843;28;20051;-68
2023/07/26 03:32:34;;;;;;;37.53;7.43;;;27.90;79.40;;;;;;5090136;28;20043;-68
2023/07/26 03:35:38;;;;;;;42.08;7.78;;;27.90;79.40;;;;;;5090810;28;20055;-68
2023/07/26 03:38:42;;;;;;;46.88;8.30;;;27.90;79.10;;;;;;5090815;28;20047;-69
2023/07/26 03:41:46;;;;;;;46.45;6.88;;;27.90;79.20;;;;;;5090900;28;20051;-69
2023/07/26 03:44:50;;;;;;;46.85;6.20;;;27.80;78.60;;;;;;5089853;28;20043;-68
2023/07/26 03:47:54;;;;;;;32.15;7.03;;;27.80;78.60;;;;;;5089922;28;20043;-69
2023/07/26 03:50:58;;;;;;;34.88;6.60;;;27.70;78.50;;;;;;5090026;28;20051;-69
2023/07/26 03:54:02;;;;;;;37.28;7.13;;;27.80;78.60;;;;;;5090531;28;20054;-68
2023/07/26 03:57:07;;;;;;;49.92;6.80;;;27.80;79.00;;;;;;5090880;28;20054;-68
2023/07/26 04:00:12;;;;;;;37.20;6.38;;;27.70;78.50;;;;;;5089847;28;20044;-68
2023/07/26 04:03:16;;;;;;;40.70;7.00;;;27.70;78.40;;;;;;5090644;28;20047;-69
2023/07/26 04:06:20;;;;;;;41.05;6.78;;;27.60;78.50;;;;;;5090837;28;20047;-68
2023/07/26 04:09:24;;;;;;;33.17;6.45;;;27.60;78.10;;;;;;5090455;28;20059;-68
2023/07/26 04:12:28;;;;;;;48.63;7.40;;;27.60;78.30;;;;;;5090536;28;20035;-68
2023/07/26 04:15:32;;;;;;;46.50;7.68;;;27.60;78.00;;;;;;5090709;28;20502;-69
2023/07/26 04:18:36;;;;;;;39.50;7.43;;;27.60;78.10;;;;;;5090802;28;20395;-68
2023/07/26 04:21:40;;;;;;;36.60;6.60;;;27.60;78.30;;;;;;5090403;28;20050;-69
2023/07/26 04:24:44;;;;;;;44.28;6.93;;;27.60;78.50;;;;;;5090072;28;20063;-68
2023/07/26 04:27:48;;;;;;;41.30;6.97;;;27.50;78.70;;;;;;5090543;28;20047;-68
2023/07/26 04:30:52;;;;;;;38.65;7.32;;;27.50;78.70;;;;;;5093805;28;20557;-67
2023/07/26 04:33:56;;;;;;;45.15;7.50;;;27.50;78.60;;;;;;5093881;28;20043;-68
2023/07/26 04:37:00;;;;;;;52.13;7.65;;;27.60;78.80;;;;;;5093790;28;20039;-68
2023/07/26 04:40:04;;;;;;;42.97;8.23;;;27.60;78.70;;;;;;5094018;28;20059;-68
2023/07/26 04:43:08;;;;;;;35.22;7.05;;;27.60;78.50;;;;;;5093936;28;20518;-68
2023/07/26 04:46:12;;;;;;;31.90;6.05;;;27.60;78.30;;;;;;5093783;28;20062;-68
2023/07/26 04:49:16;;;;;;;26.90;6.15;;;27.70;77.90;;;;;;5093652;28;20067;-68
2023/07/26 04:52:20;;;;;;;49.30;7.03;;;28.10;77.60;;;;;;5093462;28;20043;-68
2023/07/26 04:55:24;;;;;;;42.20;8.02;;;28.20;77.20;;;;;;5093529;28;20043;-68
2023/07/26 04:58:28;;;;;;;50.35;7.25;;;28.10;77.20;;;;;;5093647;28;20047;-68
2023/07/26 05:01:32;;;;;;;40.08;7.10;;;28.00;77.70;;;;;;5093639;28;20039;-67
2023/07/26 05:04:36;;;;;;;33.78;7.13;;;28.10;77.30;;;;;;5093585;28;20051;-67
2023/07/26 05:07:40;;;;;;;37.60;5.85;;;28.40;77.10;;;;;;5092338;28;20043;-67
2023/07/26 05:10:49;;;;;;;36.20;5.82;;;28.90;76.20;;;;;;5093029;28;20380;-67
2023/07/26 05:13:52;;;;;;;39.92;6.75;;;29.30;75.30;;;;;;5092945;28;20043;-68
2023/07/26 05:16:56;;;;;;;41.65;6.90;;;29.60;74.40;;;;;;5092863;28;20403;-68
2023/07/26 05:20:00;;;;;;;46.13;6.53;;;29.70;74.00;;;;;;5093157;28;20047;-68
2023/07/26 05:23:04;;;;;;;41.17;8.05;;;29.90;73.50;;;;;;5092785;28;20114;-68
2023/07/26 05:26:08;;;;;;;45.65;7.65;;;30.10;73.30;;;;;;5092563;28;20047;-70
2023/07/26 05:29:12;;;;;;;31.35;6.00;;;30.20;72.70;;;;;;5091026;28;20055;-68
2023/07/26 05:32:16;;;;;;;34.33;6.38;;;30.20;72.50;;;;;;5092265;28;20051;-69
2023/07/26 05:35:20;;;;;;;36.05;6.28;;;30.20;72.10;;;;;;5092091;28;20051;-69
2023/07/26 05:38:24;;;;;;;53.00;7.82;;;30.30;72.30;;;;;;5092669;28;20035;-69
2023/07/26 05:41:31;;;;;;;39.80;6.20;;;30.30;72.40;;;;;;5091773;28;20507;-68
2023/07/26 05:44:35;;;;;;;30.60;5.13;;;30.30;72.30;;;;;;5092557;28;20039;-67
2023/07/26 05:47:38;;;;;;;45.38;7.30;;;30.30;72.70;;;;;;5092689;28;20052;-68
2023/07/26 05:50:47;;;;;;;47.22;7.15;;;30.20;73.20;;;;;;5092298;28;20047;-67
2023/07/26 05:53:51;;;;;;;40.28;6.63;;;30.00;73.10;;;;;;5092328;28;20054;-67
2023/07/26 05:56:55;;;;;;;180.95;20.30;;;29.80;73.30;;;;;;5092241;28;20047;-68
2023/07/26 06:00:00;;;;;;;65.32;8.55;;;29.70;73.20;;;;;;5092103;28;20083;-68
2023/07/26 06:03:04;;;;;;;57.75;6.45;;;29.70;73.40;;;;;;5092202;28;20101;-67
2023/07/26 06:06:10;;;;;;;33.97;6.43;;;29.90;73.40;;;;;;5092432;28;20055;-68
2023/07/26 06:09:15;;;;;;;53.50;6.40;;;29.80;73.20;;;;;;5092156;28;20510;-67
2023/07/26 06:12:19;;;;;;;39.20;6.45;;;29.70;73.20;;;;;;5091952;28;20039;-69
2023/07/26 06:15:23;;;;;;;30.35;5.82;;;29.50;73.70;;;;;;5092033;28;20535;-68
2023/07/26 06:18:27;;;;;;;43.92;6.05;;;29.60;73.50;;;;;;5091759;28;20502;-67
2023/07/26 06:21:31;;;;;;;46.47;6.07;;;29.80;73.40;;;;;;5091721;28;20051;-67
2023/07/26 06:24:36;;;;;;;47.67;6.72;;;30.20;72.60;;;;;;5091476;28;20075;-67
2023/07/26 06:27:40;;;;;;;31.50;6.05;;;30.60;72.10;;;;;;5091591;28;20075;-67
2023/07/26 06:30:44;;;;;;;33.80;6.25;;;31.00;70.70;;;;;;5091464;28;20114;-67
2023/07/26 06:33:49;;;;;;;119.30;10.32;;;31.30;70.20;;;;;;5091288;28;20055;-69
2023/07/26 06:36:53;;;;;;;50.38;7.22;;;31.30;70.00;;;;;;5091726;28;20043;-68
2023/07/26 06:39:57;;;;;;;53.70;7.68;;;31.00;70.00;;;;;;5091779;28;20039;-69
2023/07/26 06:43:01;;;;;;;37.55;6.78;;;30.80;70.70;;;;;;5091574;28;20043;-68
2023/07/26 06:46:05;;;;;;;40.55;5.88;;;30.60;70.00;;;;;;5091680;28;20046;-69
2023/07/26 06:49:10;;;;;;;40.40;6.38;;;30.40;71.00;;;;;;5091387;28;20431;-67
2023/07/26 06:52:13;;;;;;;36.63;5.72;;;30.30;71.60;;;;;;5091199;28;20051;-72
2023/07/26 06:55:17;;;;;;;30.20;5.72;;;30.50;70.50;;;;;;5090717;28;20055;-68
2023/07/26 06:58:21;;;;;;;33.78;5.50;;;30.90;69.80;;;;;;5091203;28;20050;-70
2023/07/26 07:01:25;;;;;;;34.75;5.15;;;31.00;69.80;;;;;;5091433;28;20384;-70
2023/07/26 07:04:29;;;;;;;37.63;5.07;;;31.10;69.20;;;;;;5091240;28;20387;-66
2023/07/26 07:07:33;;;;;;;39.88;6.30;;;31.10;69.30;;;;;;5091299;28;20039;-68
2023/07/26 07:10:37;;;;;;;30.63;5.50;;;31.00;69.50;;;;;;5090931;28;20518;-69
2023/07/26 07:13:41;;;;;;;33.22;4.75;;;31.20;68.70;;;;;;5090401;28;20047;-68
2023/07/26 07:16:44;;;;;;;28.55;4.93;;;31.30;68.60;;;;;;5090984;28;20043;-68
2023/07/26 07:19:48;;;;;;;53.25;7.82;;;31.10;68.50;;;;;;5090646;28;20039;-69
2023/07/26 07:22:53;;;;;;;73.45;14.25;;;31.10;69.10;;;;;;5089870;28;20047;-68
2023/07/26 07:25:57;;;;;;;28.02;5.30;;;31.40;68.50;;;;;;5088624;28;20399;-68
2023/07/26 07:29:01;;;;;;;26.60;4.72;;;31.70;67.50;;;;;;5089126;28;20094;-68
2023/07/26 07:32:06;;;;;;;52.63;6.72;;;31.90;67.00;;;;;;5089379;28;20055;-68
2023/07/26 07:35:10;;;;;;;42.50;5.63;;;31.80;66.10;;;;;;5090102;28;20051;-68
2023/07/26 07:38:14;;;;;;;33.17;4.60;;;31.60;67.00;;;;;;5090094;28;20043;-68
2023/07/26 07:41:18;;;;;;;494.48;43.10;;;31.60;67.20;;;;;;5091145;28;20043;-68
2023/07/26 07:44:22;;;;;;;40.00;6.43;;;31.60;67.60;;;;;;5090673;28;20051;-68
2023/07/26 07:47:26;;;;;;;32.92;5.75;;;31.60;67.60;;;;;;5090663;28;20086;-68
2023/07/26 07:50:30;;;;;;;35.05;5.95;;;31.80;66.10;;;;;;5090465;28;20055;-69
2023/07/26 07:53:34;;;;;;;54.67;6.22;;;33.20;64.60;;;;;;5091019;28;20047;-70
2023/07/26 07:56:38;;;;;;;36.58;5.50;;;34.30;63.10;;;;;;5091075;28;20059;-72
2023/07/26 07:59:42;;;;;;;124.13;10.52;;;34.90;62.60;;;;;;5090693;28;20043;-71
2023/07/26 08:02:46;;;;;;;78.07;7.95;;;35.40;62.20;;;;;;5089836;28;20050;-71
2023/07/26 08:05:52;;;;;;;34.30;4.95;;;35.90;61.90;;;;;;5093639;28;20038;-70
2023/07/26 08:08:56;;;;;;;31.70;5.88;;;36.00;60.10;;;;;;5094326;28;20051;-67
2023/07/26 08:12:00;;;;;;;27.02;5.40;;;36.10;59.50;;;;;;5094090;28;20059;-69
2023/07/26 08:15:05;;;;;;;104.32;9.48;;;36.40;60.00;;;;;;5094078;28;20035;-70
2023/07/26 08:18:09;;;;;;;28.80;5.28;;;36.60;60.30;;;;;;5094130;28;20047;-67
2023/07/26 08:21:12;;;;;;;35.25;5.47;;;36.40;60.20;;;;;;5094240;28;20039;-71
2023/07/26 08:24:16;;;;;;;35.00;6.15;;;36.60;60.40;;;;;;5094028;28;20054;-70
2023/07/26 08:27:20;;;;;;;24.80;4.90;;;36.60;59.50;;;;;;5094067;28;20051;-70
2023/07/26 08:30:24;;;;;;;55.17;7.47;;;36.70;58.60;;;;;;5093492;28;20072;-74
2023/07/26 08:33:28;;;;;;;42.45;6.68;;;36.20;59.20;;;;;;5093065;28;20051;-69
2023/07/26 08:36:32;;;;;;;53.55;6.57;;;35.00;60.30;;;;;;5093799;28;20047;-70
2023/07/26 08:39:36;;;;;;;48.22;6.35;;;34.10;62.50;;;;;;5093718;28;20051;-70
2023/07/26 08:42:41;;;;;;;27.88;5.22;;;33.50;63.20;;;;;;5092716;28;20113;-69
2023/07/26 08:45:45;;;;;;;24.40;5.38;;;33.00;63.40;;;;;;5093347;28;20062;-69
2023/07/26 08:48:51;;;;;;;33.35;5.40;;;32.80;65.10;;;;;;5093918;28;20055;-70
2023/07/26 08:51:57;;;;;;;65.68;7.60;;;32.90;66.20;;;;;;5093427;28;20214;-69
2023/07/26 08:55:01;;;;;;;35.15;5.35;;;33.10;64.70;;;;;;5093619;28;20043;-69
2023/07/26 08:58:06;;;;;;;36.70;5.10;;;33.20;63.80;;;;;;5093843;28;20055;-70
2023/07/26 09:01:10;;;;;;;31.65;5.53;;;33.30;64.50;;;;;;5093632;28;20054;-70
2023/07/26 09:04:14;;;;;;;30.92;5.65;;;33.30;64.30;;;;;;5093165;28;20407;-70
2023/07/26 09:07:19;;;;;;;31.90;5.00;;;33.30;64.20;;;;;;5093111;28;20047;-69
2023/07/26 09:10:25;;;;;;;31.10;5.72;;;33.20;64.30;;;;;;5093140;28;20051;-70
2023/07/26 09:13:29;;;;;;;38.03;5.60;;;33.30;64.60;;;;;;5093242;28;20059;-70
2023/07/26 09:16:34;;;;;;;47.50;5.82;;;33.50;63.40;;;;;;5093435;28;20035;-70
2023/07/26 09:19:38;;;;;;;19.23;4.68;;;33.60;64.10;;;;;;5093044;28;20039;-70
2023/07/26 09:22:42;;;;;;;35.30;6.38;;;33.70;63.80;;;;;;5092948;28;20047;-69
2023/07/26 09:25:46;;;;;;;65.35;7.03;;;33.70;63.30;;;;;;5091996;28;20055;-69
2023/07/26 09:28:53;;;;;;;31.80;5.47;;;33.90;63.90;;;;;;5092943;28;20059;-70
2023/07/26 09:31:57;;;;;;;44.72;5.88;;;33.90;63.60;;;;;;5092996;28;20417;-69
2023/07/26 09:35:04;;;;;;;305.77;26.10;;;33.60;63.40;;;;;;5092680;28;20086;-70
2023/07/26 09:38:30;;;;;;;21.40;4.95;;;33.60;63.70;;;;;;5092918;28;20063;-69
2023/07/26 09:41:34;;;;;;;42.05;6.55;;;33.50;62.70;;;;;;5092873;28;20050;-70
2023/07/26 09:44:38;;;;;;;29.30;5.35;;;33.60;63.20;;;;;;5092780;28;20039;-70
2023/07/26 09:47:42;;;;;;;30.42;5.63;;;33.50;62.50;;;;;;5092506;28;20055;-70
2023/07/26 09:50:49;;;;;;;19.60;4.00;;;33.30;63.00;;;;;;5092212;28;20055;-70
2023/07/26 09:53:55;;;;;;;32.30;5.78;;;33.10;64.00;;;;;;5092398;28;20039;-69
2023/07/26 09:57:00;;;;;;;33.88;5.30;;;32.90;64.00;;;;;;5092557;28;20043;-70
2023/07/26 10:00:06;;;;;;;41.95;6.00;;;32.90;64.60;;;;;;5092233;28;20043;-70
2023/07/26 10:03:13;;;;;;;27.60;5.25;;;32.80;64.80;;;;;;5091753;28;20399;-70
2023/07/26 10:06:19;;;;;;;45.58;5.78;;;32.50;65.20;;;;;;5092061;28;20059;-70
2023/07/26 10:09:24;;;;;;;173.73;12.68;;;32.40;65.70;;;;;;5092028;28;20503;-69
2023/07/26 10:12:29;;;;;;;123.07;8.82;;;32.30;66.30;;;;;;5091748;28;20055;-70
2023/07/26 10:15:35;;;;;;;30.08;4.60;;;32.20;65.20;;;;;;5092143;28;20043;-70
2023/07/26 10:18:41;;;;;;;35.17;5.70;;;32.10;65.40;;;;;;5092099;28;20047;-70
2023/07/26 10:21:47;;;;;;;28.75;5.30;;;32.00;65.00;;;;;;5091780;28;20050;-70
2023/07/26 10:24:51;;;;;;;44.45;5.75;;;32.20;65.30;;;;;;5091661;28;20054;-70
2023/07/26 10:27:56;;;;;;;32.92;5.32;;;32.40;64.80;;;;;;5091577;28;20059;-70
2023/07/26 10:31:01;;;;;;;75.35;9.50;;;32.60;64.60;;;;;;5091646;28;20059;-71
2023/07/26 10:34:05;;;;;;;110.75;11.48;;;32.90;65.20;;;;;;5091816;28;20514;-69
2023/07/26 10:37:19;;;;;;;105.82;9.63;;;34.10;62.60;;;;;;5091897;28;20084;-71
2023/07/26 10:40:30;;;;;;;54.35;7.28;;;35.20;61.20;;;;;;5091065;28;20058;-72
2023/07/26 10:43:39;;;;;;;53.08;6.82;;;35.20;61.60;;;;;;5091941;28;20043;-72
2023/07/26 10:47:01;;;;;;;42.78;5.75;;;36.00;61.10;;;;;;5091570;28;20051;-72
2023/07/26 10:50:06;;;;;;;305.52;24.35;;;36.00;60.00;;;;;;5091659;28;20059;-71
2023/07/26 10:53:38;;;;;;;43.47;6.72;;;35.60;60.60;;;;;;5090281;28;20517;-69
2023/07/26 10:56:41;;;;;;;131.13;12.43;;;36.00;60.00;;;;;;5091209;28;20043;-72
2023/07/26 11:00:09;;;;;;;53.45;6.82;;;36.00;59.70;;;;;;5091519;28;20047;-71
2023/07/26 11:03:13;;;;;;;143.73;12.73;;;35.80;61.10;;;;;;5090157;28;20051;-68
2023/07/26 11:06:18;;;;;;;85.65;8.80;;;35.20;61.50;;;;;;5088472;28;20043;-68
2023/07/26 11:09:27;;;;;;;328.50;22.00;;;34.50;62.70;;;;;;5090003;28;20059;-69
2023/07/26 11:12:31;;;;;;;113.63;10.93;;;34.10;63.60;;;;;;5090450;28;20058;-69
2023/07/26 11:15:37;;;;;;;39.75;5.78;;;33.80;64.70;;;;;;5090549;28;20447;-68
2023/07/26 11:18:42;;;;;;;61.75;7.18;;;33.50;65.20;;;;;;5090864;28;20051;-68
2023/07/26 11:21:46;;;;;;;42.55;5.75;;;33.40;65.40;;;;;;5090742;28;20043;-69
2023/07/26 11:24:49;;;;;;;45.30;6.10;;;33.20;64.50;;;;;;5090152;28;20051;-69
2023/07/26 11:27:53;;;;;;;44.88;6.63;;;33.10;63.80;;;;;;5091031;28;20043;-69
2023/07/26 11:30:58;;;;;;;38.97;6.60;;;33.00;64.10;;;;;;5090891;28;20502;-69
2023/07/26 11:34:18;;;;;;;154.65;14.25;;;32.90;64.80;;;;;;5092213;28;20051;-69
2023/07/26 11:37:22;;;;;;;77.40;7.77;;;32.80;64.50;;;;;;5090945;28;20047;-69
2023/07/26 11:40:26;;;;;;;34.80;5.65;;;32.60;65.00;;;;;;5095454;28;20035;-69
2023/07/26 11:43:30;;;;;;;34.28;5.85;;;32.50;65.70;;;;;;5094945;28;20039;-69
2023/07/26 11:46:35;;;;;;;37.58;5.82;;;32.50;66.50;;;;;;5095171;28;20043;-69
2023/07/26 11:49:38;;;;;;;35.17;5.82;;;32.50;66.60;;;;;;5094739;28;20047;-68
2023/07/26 11:52:42;;;;;;;43.05;6.03;;;32.50;66.50;;;;;;5094956;28;20510;-68
2023/07/26 11:55:50;;;;;;;73.57;8.00;;;32.50;67.00;;;;;;5094924;28;20339;-69
2023/07/26 11:58:57;;;;;;;27.67;6.07;;;32.60;66.90;;;;;;5094609;28;20122;-68
2023/07/26 12:02:01;;;;;;;102.80;10.00;;;32.50;67.00;;;;;;5094769;28;20075;-68
2023/07/26 12:05:18;;;;;;;48.05;7.72;;;32.40;67.30;;;;;;5095174;28;20051;-69
2023/07/26 12:08:22;;;;;;;85.20;10.10;;;32.30;67.30;;;;;;5094678;28;20419;-68
2023/07/26 12:11:25;;;;;;;32.42;5.85;;;32.30;67.20;;;;;;5094612;28;20063;-67
2023/07/26 12:14:31;;;;;;;39.25;6.25;;;32.60;66.80;;;;;;5094370;28;20498;-68
2023/07/26 12:17:35;;;;;;;46.60;7.32;;;33.20;67.50;;;;;;5094660;28;20047;-67
2023/07/26 12:20:55;;;;;;;43.33;6.10;;;34.10;66.50;;;;;;5094265;28;20039;-68
2023/07/26 12:24:04;;;;;;;68.20;7.85;;;34.50;65.20;;;;;;5094256;28;20051;-68
2023/07/26 12:27:09;;;;;;;33.63;5.97;;;34.40;65.50;;;;;;5093621;28;20054;-68
2023/07/26 12:30:16;;;;;;;31.20;5.40;;;34.30;65.70;;;;;;5093953;28;20043;-69
2023/07/26 12:33:20;;;;;;;58.13;7.22;;;34.20;65.30;;;;;;5094492;28;20046;-68
2023/07/26 12:36:47;;;;;;;52.13;7.28;;;34.20;64.90;;;;;;5093671;28;20051;-68
2023/07/26 12:39:51;;;;;;;37.58;6.65;;;34.40;63.90;;;;;;5094044;28;20043;-68
2023/07/26 12:42:54;;;;;;;51.33;6.40;;;34.70;64.00;;;;;;5093984;28;20047;-68
2023/07/26 12:46:00;;;;;;;38.50;5.63;;;34.90;63.70;;;;;;5094150;28;20043;-68
2023/07/26 12:49:06;;;;;;;58.78;7.53;;;34.80;64.00;;;;;;5093096;28;20051;-68
2023/07/26 12:52:10;;;;;;;93.28;8.38;;;34.70;64.80;;;;;;5093672;28;20518;-69
2023/07/26 12:55:13;;;;;;;322.33;25.65;;;34.60;64.30;;;;;;5093521;28;20066;-69
2023/07/26 12:58:17;;;;;;;212.57;18.45;;;34.60;65.00;;;;;;5093903;28;20054;-69
2023/07/26 13:01:21;;;;;;;60.78;9.00;;;34.40;64.70;;;;;;5093636;28;20292;-68
2023/07/26 13:04:25;;;;;;;339.58;27.73;;;34.10;65.00;;;;;;5092383;28;20042;-68
2023/07/26 13:07:29;;;;;;;27.13;4.85;;;33.90;64.80;;;;;;5093322;28;20059;-68
2023/07/26 13:10:33;;;;;;;117.47;12.13;;;34.10;65.10;;;;;;5093163;28;20059;-68
2023/07/26 13:13:37;;;;;;;131.63;12.32;;;34.40;64.80;;;;;;5093582;28;20074;-67
2023/07/26 13:16:41;;;;;;;207.73;18.67;;;34.60;64.80;;;;;;5093662;28;20051;-67
2023/07/26 13:19:45;;;;;;;147.85;14.85;;;34.40;65.20;;;;;;5093004;28;20202;-69
2023/07/26 13:22:49;;;;;;;50.40;6.60;;;34.30;65.30;;;;;;5093268;28;20035;-69
2023/07/26 13:25:53;;;;;;;72.30;8.63;;;34.40;65.70;;;;;;5092631;28;20221;-68
2023/07/26 13:28:57;;;;;;;114.28;10.52;;;34.20;65.90;;;;;;5093305;28;20047;-67
2023/07/26 13:32:01;;;;;;;115.53;11.18;;;34.20;66.30;;;;;;5092934;28;20055;-69
2023/07/26 13:35:06;;;;;;;99.00;10.13;;;34.40;66.10;;;;;;5093214;28;20043;-69
2023/07/26 13:38:10;;;;;;;171.98;16.60;;;34.60;65.80;;;;;;5092735;28;20051;-68
2023/07/26 13:41:14;;;;;;;546.10;50.22;;;34.40;65.90;;;;;;5092866;28;20047;-68
2023/07/26 13:44:18;;;;;;;64.57;7.68;;;34.50;66.20;;;;;;5092732;28;20051;-68
2023/07/26 13:47:23;;;;;;;80.05;9.23;;;35.10;65.60;;;;;;5093226;28;20059;-74
2023/07/26 13:50:27;;;;;;;65.85;6.53;;;35.50;65.50;;;;;;5092278;28;20043;-75
2023/07/26 13:53:31;;;;;;;76.85;8.98;;;35.70;64.20;;;;;;5092485;28;20051;-74
2023/07/26 13:56:35;;;;;;;40.67;9.85;;;35.60;64.80;;;;;;5092478;28;20205;-64
2023/07/26 13:59:39;;;;;;;31.30;8.10;;;35.60;64.30;;;;;;5092679;28;20059;-64
2023/07/26 14:02:43;;;;;;;26.35;5.35;;;35.70;64.20;;;;;;5091195;28;20059;-64
2023/07/26 14:05:47;;;;;;;341.08;30.52;;;36.00;63.60;;;;;;5092385;28;20039;-63
2023/07/26 14:08:51;;;;;;;207.30;16.98;;;35.90;64.20;;;;;;5092140;28;20054;-68
2023/07/26 14:11:56;;;;;;;153.15;15.52;;;35.50;64.70;;;;;;5091856;28;20055;-63
2023/07/26 14:15:00;;;;;;;159.68;13.93;;;35.30;65.00;;;;;;5091992;28;20529;-65
2023/07/26 14:18:04;;;;;;;119.80;10.68;;;35.10;65.00;;;;;;5091943;28;20059;-63
2023/07/26 14:21:07;;;;;;;201.38;18.70;;;35.30;64.80;;;;;;5091474;28;20043;-64
2023/07/26 14:24:11;;;;;;;344.75;27.60;;;35.60;64.60;;;;;;5091394;28;20122;-64
2023/07/26 14:27:15;;;;;;;176.45;14.60;;;35.20;65.00;;;;;;5090789;28;20043;-64
2023/07/26 14:30:20;;;;;;;168.98;18.25;;;34.80;66.10;;;;;;5090528;28;20062;-66
2023/07/26 14:33:23;;;;;;;247.18;19.73;;;34.90;66.10;;;;;;5090716;28;20063;-67
2023/07/26 14:36:27;;;;;;;308.00;23.73;;;35.00;65.80;;;;;;5091294;28;20043;-66
2023/07/26 14:39:31;;;;;;;96.63;10.32;;;35.20;65.20;;;;;;5091145;28;20055;-65
2023/07/26 14:42:36;;;;;;;162.90;14.68;;;35.10;65.50;;;;;;5090980;28;20043;-67
2023/07/26 14:45:40;;;;;;;50.53;8.38;;;34.90;65.80;;;;;;5091678;28;20043;-67
2023/07/26 14:48:44;;;;;;;107.90;11.38;;;35.00;65.40;;;;;;5091258;28;20038;-65
2023/07/26 14:51:48;;;;;;;227.55;19.08;;;35.10;65.30;;;;;;5090875;28;20051;-66
2023/07/26 14:54:51;;;;;;;371.42;30.20;;;35.30;64.90;;;;;;5091174;28;20039;-66
2023/07/26 14:57:56;;;;;;;188.55;17.23;;;35.20;64.20;;;;;;5091259;28;20423;-67
2023/07/26 15:01:01;;;;;;;73.20;8.95;;;35.20;64.50;;;;;;5090412;28;20297;-66
2023/07/26 15:04:05;;;;;;;114.22;10.00;;;35.40;64.40;;;;;;5091160;28;20043;-66
2023/07/26 15:07:09;;;;;;;46.38;6.38;;;35.60;63.50;;;;;;5089854;28;20043;-66
2023/07/26 15:10:13;;;;;;;33.50;6.25;;;35.60;63.80;;;;;;5091273;28;20047;-65
2023/07/26 15:13:17;;;;;;;67.75;8.38;;;35.70;63.30;;;;;;5090847;28;20054;-65
2023/07/26 15:16:21;;;;;;;48.17;6.88;;;35.60;63.50;;;;;;5091554;28;20039;-66
2023/07/26 15:19:25;;;;;;;127.78;11.68;;;35.60;63.50;;;;;;5090919;28;20422;-66
2023/07/26 15:22:29;;;;;;;464.02;38.70;;;35.60;63.50;;;;;;5090827;28;20042;-67
2023/07/26 15:25:33;;;;;;;156.35;14.35;;;35.60;63.50;;;;;;5090429;28;20059;-66
2023/07/26 15:28:37;;;;;;;80.45;8.90;;;35.70;63.30;;;;;;5090935;28;20047;-67
2023/07/26 15:31:40;;;;;;;30.67;6.38;;;35.60;63.30;;;;;;5090482;28;20055;-66
2023/07/26 15:34:44;;;;;;;187.82;17.17;;;35.60;62.60;;;;;;5090910;28;20043;-66
2023/07/26 15:37:48;;;;;;;69.78;9.18;;;35.50;63.20;;;;;;5091065;28;20419;-66
2023/07/26 15:40:52;;;;;;;36.95;6.43;;;35.50;63.80;;;;;;5090951;28;20063;-66
2023/07/26 15:43:56;;;;;;;77.93;9.32;;;35.50;64.00;;;;;;5090768;28;20055;-64
2023/07/26 15:47:00;;;;;;;176.45;14.63;;;35.40;64.00;;;;;;5090878;28;20043;-65